福岡空港の過去48時間の天気

福岡空港 (Fukuoka)

現在時刻: 12/4 14:50 JST (12/4 05:50 UTC) 以下の時間は現地時間です。

過去48時間のMETAR気象情報
時間 風向 風速(m/s) 視程 気温(℃) 湿度(%) 気圧(hPa) 天気現象
4 14:30 不定 2 10km以上 11 54 1024
4 14:00 不定 2 10km以上 11 54 1024
4 13:30 南南東 2 10km以上 11 54 1024
4 13:00 南東 2 10km以上 11 54 1024
4 12:30 南南東 3 10km以上 11 50 1024
4 12:00 3 10km以上 10 58 1025
4 11:30 南東 2 10km以上 9 62 1025
4 11:00 南南東 3 10km以上 9 62 1026
4 10:30 南南東 2 10km以上 9 62 1026
4 10:00 南南東 3 10km以上 9 66 1026
4 09:30 南南東 3 10km以上 8 66 1026
4 09:00 3 10km以上 8 66 1026
4 08:30 2 10km以上 7 70 1026
4 08:00 南東 3 10km以上 6 81 1025
4 07:30 南東 3 10km以上 5 81 1025
4 07:00 南南東 3 10km以上 5 81 1025
4 06:30 南南東 3 10km以上 6 76 1025
4 06:00 南南東 3 10km以上 6 76 1025
4 05:30 南東 3 10km以上 7 76 1025
4 05:00 南南東 3 10km以上 7 70 1025
4 04:30 南南東 3 10km以上 7 70 1024
4 04:00 南東 2 10km以上 7 70 1025
4 03:30 3 10km以上 7 70 1025
4 03:00 南南東 2 10km以上 8 66 1024
4 02:30 南南東 2 10km以上 8 66 1024
4 02:00 南東 2 10km以上 8 66 1024
4 01:30 3 10km以上 8 66 1024
4 01:00 南東 2 10km以上 8 61 1025
4 00:30 不定 1 10km以上 8 57 1024
4 00:00 不定 1 10km以上 9 57 1025
3 23:30 不定 1 10km以上 9 57 1025
3 23:00 北東 1 10km以上 9 57 1025
3 22:30 不定 1 10km以上 9 57 1025
3 22:00 東北東 2 10km以上 9 57 1025
3 21:30 北北東 2 10km以上 9 57 1025
3 21:00 北東 2 10km以上 9 62 1025
3 20:30 北北東 2 10km以上 9 62 1025
3 20:00 北北東 2 10km以上 10 58 1025
3 19:30 東北東 3 10km以上 10 58 1025
3 19:00 北北東 2 10km以上 10 58 1024
3 18:30 3 10km以上 10 54 1024
3 18:00 5 10km以上 11 50 1024
3 17:30 5 10km以上 11 50 1024
3 17:00 6 10km以上 11 50 1024
3 16:30 6 10km以上 11 50 1024
3 16:00 7 10km以上 12 47 1023
3 15:30 7 10km以上 13 44 1023
3 15:00 7 10km以上 13 47 1023
3 14:30 7 10km以上 13 47 1023
3 14:00 7 10km以上 12 50 1023
3 13:30 北北西 7 10km以上 13 47 1023
3 13:00 北北西 7 10km以上 13 44 1023
3 12:30 7 10km以上 13 47 1024
3 12:00 北北西 8 10km以上 13 51 1024
3 11:30 6 10km以上 13 47 1024
3 11:00 北北西 7 10km以上 13 51 1024
3 10:30 北北西 7 10km以上 13 54 1024
3 10:00 北北西 6 10km以上 13 58 1025
3 09:42 北北西 5 10km以上 12 62 1025
3 09:30 不定 1 10km以上 12 67 1025
3 09:00 南南東 2 10km以上 11 76 1025
3 08:30 南南東 2 10km以上 10 82 1025
3 08:00 南南東 2 10km以上 10 82 1025
3 07:30 不定 1 10km以上 9 87 1024
3 07:00 静穏 0 10km以上 9 87 1024
3 06:30 不定 1 10km以上 9 81 1024
3 06:00 2 10km以上 9 87 1023
3 05:30 南南東 2 10km以上 9 81 1023
3 05:00 南東 3 10km以上 9 87 1022
3 04:30 南南東 3 10km以上 9 81 1022
3 04:00 南南東 3 10km以上 9 87 1022
3 03:30 南南東 3 10km以上 10 82 1022
3 03:00 南南東 3 10km以上 10 82 1023
3 02:30 南南東 2 10km以上 10 82 1023
3 02:00 南東 2 10km以上 11 76 1023
3 01:30 南東 2 10km以上 11 76 1023
3 01:00 東南東 2 10km以上 11 76 1024
3 00:30 不定 1 10km以上 10 82 1024
3 00:00 不定 1 10km以上 11 76 1024
2 23:30 東北東 1 10km以上 11 76 1024
2 23:00 不定 1 10km以上 11 76 1025
2 22:30 東南東 2 10km以上 12 71 1025
2 22:00 東南東 2 10km以上 12 71 1025 弱いしゅう雨
2 21:30 北東 2 10km以上 12 71 1025
2 21:00 東北東 2 10km以上 12 71 1025
2 20:30 不定 1 10km以上 13 67 1025
2 20:00 不定 1 10km以上 12 71 1025
2 19:30 北東 2 10km以上 13 67 1024 弱いしゅう雨
2 19:00 3 10km以上 13 62 1024
2 18:30 3 10km以上 13 62 1024
2 18:00 4 10km以上 13 58 1024
2 17:30 4 10km以上 14 55 1024
2 17:00 北北東 3 10km以上 14 51 1023
2 16:30 東北東 3 10km以上 15 48 1023
2 16:00 3 10km以上 15 48 1023
2 15:30 3 10km以上 15 45 1023
2 15:00 5 10km以上 15 45 1023
RJFF 040530Z VRB03KT 9999 FEW035 SCT040 BKN045 11/02 Q1024 BECMG 32007KT
RJFF 040500Z VRB04KT 9999 FEW035 SCT040 BKN045 11/02 Q1024 BECMG 32007KT
RJFF 040430Z 15003KT 130V200 9999 FEW040 SCT045 BKN050 11/02 Q1024 BECMG TL0500 32007KT RMK 1CU040 3CU045 6SC050 A3024
RJFF 040400Z 14004KT 120V190 9999 FEW040 SCT045 BKN050 11/02 Q1024 BECMG TL0500 32007KT RMK 1CU040 3CU045 6SC050 A3025
RJFF 040330Z 15005KT 120V190 9999 FEW040 SCT045 BKN050 11/01 Q1024 BECMG 32007KT
RJFF 040300Z 18006KT 9999 FEW040 SCT045 BKN050 10/02 Q1025 BECMG 32007KT RMK 1CU040 3CU045 5SC050 A3027
RJFF 040230Z 14004KT 100V180 9999 FEW040 SCT045 BKN050 09/02 Q1025 BECMG 32007KT
RJFF 040200Z 15005KT 9999 FEW040 SCT045 BKN050 09/02 Q1026 BECMG 32007KT RMK 1CU040 3CU045 6SC050 A3030
RJFF 040130Z 16004KT 130V200 9999 FEW040 SCT050 BKN060 09/02 Q1026 BECMG 32007KT
RJFF 040100Z 15005KT 9999 FEW040 SCT050 BKN060 09/03 Q1026 BECMG 32007KT RMK 1CU040 3SC050 5SC060 A3031
RJFF 040030Z 16006KT 140V210 9999 FEW040 BKN050 08/02 Q1026 NOSIG RMK 1CU040 5SC050 A3031
RJFF 040000Z 17005KT 140V200 9999 FEW040 BKN050 08/02 Q1026 NOSIG RMK 1CU040 5SC050 A3030
RJFF 032330Z 18004KT 9999 FEW040 BKN050 07/02 Q1026 NOSIG RMK 1CU040 5SC050 A3030
RJFF 032300Z 14005KT 130V190 9999 FEW040 SCT050 06/03 Q1025 NOSIG RMK 1CU040 3SC050 A3028
RJFF 032230Z 14006KT 9999 FEW040 05/02 Q1025 NOSIG RMK 2CU040 A3028
RJFF 032200Z 16006KT 9999 FEW040 05/02 Q1025 NOSIG RMK 1CU040 A3028
RJFF 032130Z 15006KT 9999 FEW040 06/02 Q1025 NOSIG RMK 1CU040 A3028
RJFF 032100Z 15005KT 9999 FEW040 SCT050 06/02 Q1025 NOSIG RMK 1CU040 3SC050 A3027
RJFF 032030Z AUTO 14006KT 9999 SCT047 BKN050 07/03 Q1025 NOSIG RMK A3027
RJFF 032000Z AUTO 15006KT 9999 BKN047 BKN050 07/02 Q1025 NOSIG RMK A3027
RJFF 031930Z AUTO 15005KT 9999 SCT046 BKN050 07/02 Q1024 NOSIG RMK A3026
RJFF 031900Z AUTO 14003KT 130V190 9999 FEW047 BKN050 07/02 Q1025 NOSIG RMK A3027
RJFF 031830Z AUTO 17005KT 9999 SCT047 OVC050 07/02 Q1025 NOSIG RMK A3027
RJFF 031800Z AUTO 15003KT 9999 SCT048 BKN050 08/02 Q1024 NOSIG RMK A3026
RJFF 031730Z AUTO 16004KT 9999 FEW048 BKN050 08/02 Q1024 NOSIG RMK A3026
RJFF 031700Z AUTO 14004KT 9999 NSC 08/02 Q1024 NOSIG RMK A3026
RJFF 031630Z AUTO 17005KT 120V190 9999 NSC 08/02 Q1024 NOSIG RMK A3026
RJFF 031600Z AUTO 14004KT 9999 NSC 08/01 Q1025 NOSIG RMK A3027
RJFF 031530Z AUTO VRB01KT 9999 NSC 08/00 Q1024 NOSIG RMK A3026
RJFF 031500Z AUTO VRB01KT 9999 NSC 09/01 Q1025 NOSIG RMK A3027
RJFF 031430Z AUTO VRB01KT 9999 BKN048 BKN050 OVC060 09/01 Q1025 NOSIG RMK A3028
RJFF 031400Z AUTO 04002KT 9999 NSC 09/01 Q1025 NOSIG RMK A3028
RJFF 031330Z VRB01KT 9999 FEW035 BKN050 09/01 Q1025 BECMG 36006KT RMK 1CU035 7SC050 A3028
RJFF 031300Z 07003KT 350V100 9999 FEW035 BKN060 09/01 Q1025 BECMG 36006KT
RJFF 031230Z 03003KT 330V110 9999 FEW035 BKN060 09/01 Q1025 NOSIG RMK 1CU035 5SC060 A3028
RJFF 031200Z 04004KT 340V080 9999 FEW035 SCT050 09/02 Q1025 NOSIG
RJFF 031130Z 03003KT 350V070 9999 FEW035 SCT050 09/02 Q1025 NOSIG RMK 1CU035 3SC050 A3028
RJFF 031100Z 03004KT 340V080 9999 FEW035 BKN050 10/02 Q1025 NOSIG RMK 1CU035 5SC050 A3027
RJFF 031030Z 07005KT 9999 FEW035 SCT050 10/02 Q1025 BECMG 03006KT RMK 1CU035 4SC050 A3027
RJFF 031000Z 03004KT 350V070 9999 FEW035 SCT050 10/02 Q1024 NOSIG RMK 1CU035 4SC050 A3026
RJFF 030930Z 36006KT 330V030 9999 FEW035 SCT050 10/01 Q1024 NOSIG RMK 1CU035 3SC050 A3026
RJFF 030900Z 01009KT 340V040 9999 FEW035 SCT050 11/01 Q1024 NOSIG RMK 1CU035 4SC050 A3025
RJFF 030830Z 01009KT 340V040 9999 FEW035 SCT050 11/01 Q1024 NOSIG RMK 1CU035 4SC050 A3025
RJFF 030800Z 36011KT 9999 FEW035 BKN050 11/01 Q1024 NOSIG RMK 1CU035 5SC050 A3025
RJFF 030730Z 35012KT 320V030 9999 FEW035 SCT045 11/01 Q1024 NOSIG RMK 1CU035 4CU045 A3024
RJFF 030700Z 35013KT 320V030 9999 FEW035 SCT045 12/01 Q1023 NOSIG RMK 1CU035 3CU045 A3023
RJFF 030630Z 35014KT 9999 FEW035 SCT045 13/01 Q1023 NOSIG RMK 1CU035 4CU045 A3022
RJFF 030600Z 36014KT 310V040 9999 FEW035 SCT045 BKN050 13/02 Q1023 NOSIG RMK 1CU035 4CU045 5SC050 A3022
RJFF 030530Z 36013KT 330V040 9999 FEW035 BKN045 13/02 Q1023 NOSIG RMK 1CU035 6CU045 A3023
RJFF 030500Z 35013KT 9999 FEW035 BKN045 12/02 Q1023 NOSIG RMK 1CU035 5CU045 A3022
RJFF 030430Z 34013KT 9999 FEW035 SCT045 BKN050 13/02 Q1023 NOSIG RMK 1CU035 3CU045 6SC050 A3023
RJFF 030400Z 34013KT 9999 FEW035 SCT050 13/01 Q1023 NOSIG RMK 1CU035 4SC050 A3023
RJFF 030330Z 35014KT 320V020 9999 FEW035 BKN050 13/02 Q1024 NOSIG RMK 1CU035 5SC050 A3024
RJFF 030300Z 34016KT 9999 FEW035 BKN050 13/03 Q1024 NOSIG RMK 1CU035 6SC050 A3024
RJFF 030230Z 35012KT 9999 FEW035 BKN050 13/02 Q1024 NOSIG RMK 1CU035 6SC050 A3025
RJFF 030200Z 33013KT 9999 FEW035 SCT040 BKN050 13/03 Q1024 NOSIG RMK 1CU035 3CU040 6SC050 A3026
RJFF 030130Z 34014KT 9999 FEW035 BKN040 13/04 Q1024 NOSIG RMK 2CU035 5CU040 A3026
RJFF 030100Z 33011KT 9999 FEW030 BKN040 13/05 Q1025 NOSIG RMK 1CU030 5CU040 A3027
RJFF 030042Z 33010KT 220V020 9999 FEW030 SCT035 BKN050 12/05 Q1025 RMK 1CU030 3CU035 5SC050 A3028
RJFF 030030Z VRB01KT 9999 FEW030 BKN050 12/06 Q1025 BECMG FM0100 33011KT
RJFF 030000Z 15004KT 9999 FEW030 BKN045 11/07 Q1025 BECMG FM0100 33011KT RMK 1CU030 5CU045 A3027
RJFF 022330Z 16004KT 9999 FEW030 BKN045 10/07 Q1025 BECMG FM0100 33011KT RMK 1CU030 6CU045 A3028
RJFF 022300Z 15004KT 9999 FEW030 BKN045 10/07 Q1025 BECMG 33012KT RMK 1CU030 6CU045 A3027
RJFF 022230Z VRB02KT 9999 FEW030 BKN045 09/07 Q1024 BECMG FM2300 33012KT
RJFF 022200Z 00000KT 9999 FEW030 SCT035 BKN045 09/07 Q1024 BECMG FM2300 33012KT RMK 1CU030 3CU035 6SC045 A3025
RJFF 022130Z VRB01KT 9999 FEW030 SCT035 BKN045 09/06 Q1024 BECMG 33009KT
RJFF 022100Z 09003KT 050V130 9999 FEW035 SCT040 BKN050 09/07 Q1023 BECMG 33009KT
RJFF 022030Z AUTO 15004KT 9999 FEW047 SCT050 BKN060 09/06 Q1023 BECMG 33009KT
RJFF 022000Z AUTO 14005KT 9999 FEW045 BKN050 BKN060 09/07 Q1022 BECMG FM2100 33009KT
RJFF 021930Z AUTO 16005KT 9999 FEW043 BKN050 09/06 Q1022 NOSIG RMK A3020
RJFF 021900Z AUTO 16005KT 9999 FEW042 BKN044 BKN050 09/07 Q1022 NOSIG RMK A3020
RJFF 021830Z AUTO 15005KT 9999 FEW044 BKN046 BKN050 10/07 Q1022 NOSIG RMK A3020
RJFF 021800Z AUTO 15006KT 9999 FEW037 BKN047 BKN050 10/07 Q1023 NOSIG RMK A3021
RJFF 021730Z AUTO 16004KT 9999 FEW036 SCT044 BKN046 10/07 Q1023 NOSIG RMK A3021
RJFF 021700Z AUTO 14004KT 9999 FEW040 SCT044 BKN050 11/07 Q1023 NOSIG RMK A3022
RJFF 021630Z AUTO 14003KT 9999 FEW035 BKN041 OVC043 11/07 Q1023 NOSIG
RJFF 021600Z AUTO 11003KT 9999 FEW034 SCT048 BKN050 11/07 Q1024 NOSIG
RJFF 021530Z AUTO VRB02KT 9999 FEW033 SCT050 BKN060 10/07 Q1024 NOSIG
RJFF 021500Z AUTO VRB01KT 9999 FEW039 BKN050 BKN060 11/07 Q1024 NOSIG RMK A3025
RJFF 021430Z AUTO 06002KT 9999 FEW040 SCT046 BKN050 11/07 Q1024 NOSIG RMK A3026
RJFF 021400Z AUTO VRB02KT 9999 FEW041 SCT048 BKN050 11/07 Q1025 NOSIG RMK A3027
RJFF 021330Z 11003KT 9999 FEW030 SCT050 BKN070 12/07 Q1025 NOSIG RMK 1CU030 3SC050 6AC070 A3027
RJFF 021300Z 12003KT 090V170 9999 -SHRA FEW030 SCT040 BKN045 12/07 Q1025 NOSIG
RJFF 021230Z 05003KT 9999 FEW030 SCT050 BKN070 12/07 Q1025 NOSIG RMK 1CU030 4SC050 5AC070 A3028
RJFF 021200Z 07003KT 010V120 9999 FEW030 SCT050 BKN070 12/07 Q1025 NOSIG RMK 1CU030 3SC050 5AC070 A3027
RJFF 021130Z VRB02KT 9999 FEW030 SCT040 BKN050 13/07 Q1025 NOSIG RMK 1CU030 3CU040 5SC050 A3027
RJFF 021100Z VRB02KT 9999 FEW030 BKN050 BKN080 12/07 Q1025 NOSIG RMK 1CU030 5SC050 6AC080 A3027 LGT TO MOD TURB OBS AT 1045Z 20NM SW DGC BTN 9500FT AND 9000FT IN DES MOV NE A320
RJFF 021030Z 05003KT 320V130 9999 -SHRA FEW030 SCT040 BKN050 13/07 Q1024 NOSIG RMK 1CU030 3CU040 6SC050 A3026
RJFF 021000Z 01005KT 330V050 9999 FEW030 SCT070 BKN080 13/06 Q1024 BECMG FM1100 11004KT RMK 1CU030 3AC070 6AC080 A3026
RJFF 020930Z 36005KT 9999 FEW030 BKN080 13/06 Q1024 BECMG FM1100 11004KT RMK 1CU030 5AC080 A3025
RJFF 020900Z 36007KT 320V030 9999 FEW035 BKN080 13/05 Q1024 NOSIG RMK 1CU035 5AC080 A3025
RJFF 020830Z 36008KT 9999 FEW035 SCT050 14/05 Q1024 NOSIG RMK 1CU035 3SC050 A3024
RJFF 020800Z 03006KT 330V080 9999 FEW035 SCT050 14/04 Q1023 NOSIG RMK 1CU035 4SC050 A3023
RJFF 020730Z 06006KT 9999 FEW035 15/04 Q1023 BECMG 03006KT RMK 1CU035 A3022
RJFF 020700Z 01005KT 310V070 9999 FEW035 15/04 Q1023 NOSIG RMK 1CU035 A3021
RJFF 020630Z 35006KT 300V060 9999 FEW035 15/03 Q1023 NOSIG RMK 1CU035 A3021
RJFF 020600Z 01009KT 340V040 9999 FEW035 15/03 Q1023 NOSIG RMK 1CU035 A3023